createdAt,value
2023-02-04T00:00:18.390Z,4.63
2023-02-04T00:02:45.607Z,3.40
2023-02-04T00:05:13.719Z,3.83
2023-02-04T00:07:41.533Z,3.77
2023-02-04T00:10:09.856Z,4.50
2023-02-04T00:12:37.705Z,3.67
2023-02-04T00:15:05.312Z,4.47
2023-02-04T00:17:32.472Z,4.33
2023-02-04T00:19:59.501Z,4.30
2023-02-04T00:22:29.029Z,3.73
2023-02-04T00:24:56.817Z,2.80
2023-02-04T00:27:24.177Z,3.47
2023-02-04T00:29:51.299Z,4.33
2023-02-04T00:32:18.567Z,3.20
2023-02-04T00:34:45.894Z,3.43
2023-02-04T00:37:12.971Z,2.93
2023-02-04T00:39:40.002Z,3.33
2023-02-04T00:42:08.314Z,3.20
2023-02-04T00:44:36.544Z,2.53
2023-02-04T00:47:04.901Z,2.90
2023-02-04T00:49:33.948Z,3.17
2023-02-04T00:52:00.966Z,3.10
2023-02-04T00:54:28.564Z,2.63
2023-02-04T00:56:55.903Z,3.47
2023-02-04T00:59:23.279Z,3.00
2023-02-04T01:01:51.644Z,2.73
2023-02-04T01:04:18.964Z,2.80
2023-02-04T01:06:46.073Z,2.60
2023-02-04T01:09:13.575Z,2.90
2023-02-04T01:11:40.812Z,3.80
2023-02-04T01:14:08.075Z,3.23
2023-02-04T01:16:35.233Z,2.70
2023-02-04T01:19:02.279Z,2.60
2023-02-04T01:21:29.625Z,2.83
2023-02-04T01:23:57.328Z,2.80
2023-02-04T01:26:25.285Z,2.70
2023-02-04T01:28:52.299Z,3.90
2023-02-04T01:31:19.418Z,4.03
2023-02-04T01:33:46.836Z,3.00
2023-02-04T01:36:14.123Z,3.77
2023-02-04T01:38:41.651Z,3.33
2023-02-04T01:41:08.982Z,3.90
2023-02-04T01:43:36.109Z,4.20
2023-02-04T01:46:03.303Z,4.33
2023-02-04T01:48:31.175Z,5.63
2023-02-04T01:51:13.435Z,4.20
2023-02-04T01:53:40.981Z,3.80
2023-02-04T01:56:21.352Z,4.30
2023-02-04T01:58:49.608Z,5.00
2023-02-04T02:01:42.242Z,5.40
2023-02-04T02:04:17.448Z,4.97
2023-02-04T02:06:51.268Z,5.57
2023-02-04T02:09:18.632Z,4.60
2023-02-04T02:11:45.934Z,4.83
2023-02-04T02:14:13.824Z,4.53
2023-02-04T02:16:40.975Z,5.20
2023-02-04T02:19:14.826Z,5.00
2023-02-04T02:22:11.067Z,4.83
2023-02-04T02:24:38.279Z,5.60
2023-02-04T02:27:11.775Z,5.90
2023-02-04T02:29:41.406Z,4.73
2023-02-04T02:32:10.910Z,5.00
2023-02-04T02:34:39.604Z,5.40
2023-02-04T02:37:11.180Z,5.93
2023-02-04T02:39:41.423Z,5.77
2023-02-04T02:42:10.589Z,5.07
2023-02-04T02:44:37.834Z,5.20
2023-02-04T02:47:05.153Z,5.43
2023-02-04T02:49:33.270Z,5.90
2023-02-04T02:52:00.694Z,5.17
2023-02-04T02:54:31.734Z,5.70
2023-02-04T02:56:59.678Z,5.73
2023-02-04T02:59:27.650Z,6.77
2023-02-04T03:02:02.403Z,6.53
2023-02-04T03:04:33.859Z,5.43
2023-02-04T03:07:01.530Z,5.37
2023-02-04T03:09:30.034Z,5.17
2023-02-04T03:11:57.219Z,5.23
2023-02-04T03:14:25.435Z,4.60
2023-02-04T03:16:54.422Z,5.33
2023-02-04T03:19:24.459Z,4.67
2023-02-04T03:21:52.145Z,5.43
2023-02-04T03:24:19.412Z,5.13
2023-02-04T03:26:46.622Z,5.43
2023-02-04T03:29:13.738Z,5.47
2023-02-04T03:31:41.002Z,5.50
2023-02-04T03:34:08.588Z,6.17
2023-02-04T03:36:36.600Z,5.73
2023-02-04T03:39:04.617Z,5.47
2023-02-04T03:41:31.749Z,6.20
2023-02-04T03:43:58.822Z,5.30
2023-02-04T03:46:26.141Z,5.10
2023-02-04T03:48:53.418Z,4.87
2023-02-04T03:51:20.578Z,5.70
2023-02-04T03:53:47.782Z,5.20
2023-02-04T03:56:14.913Z,5.43
2023-02-04T03:58:42.048Z,5.70
2023-02-04T04:01:09.436Z,4.83
2023-02-04T04:03:36.695Z,5.90
2023-02-04T04:06:06.408Z,5.23
2023-02-04T04:08:34.584Z,6.27
2023-02-04T04:11:01.784Z,5.57
2023-02-04T04:13:29.064Z,6.00
2023-02-04T04:15:56.490Z,5.50
2023-02-04T04:18:23.645Z,5.50
2023-02-04T04:20:50.877Z,5.50
2023-02-04T04:23:17.836Z,6.57
2023-02-04T04:25:44.836Z,6.13
2023-02-04T04:28:12.343Z,6.73
2023-02-04T04:30:39.739Z,6.00
2023-02-04T04:33:06.970Z,5.70
2023-02-04T04:35:34.850Z,5.90
2023-02-04T04:38:03.229Z,5.47
2023-02-04T04:40:30.736Z,6.20
2023-02-04T04:42:58.178Z,6.13
2023-02-04T04:45:25.341Z,6.30
2023-02-04T04:47:52.605Z,7.00
2023-02-04T04:50:19.769Z,7.17
2023-02-04T04:52:47.149Z,6.97
2023-02-04T04:55:14.399Z,7.63
2023-02-04T04:57:41.553Z,6.80
2023-02-04T05:00:14.846Z,7.77
2023-02-04T05:02:42.051Z,8.03
2023-02-04T05:05:10.403Z,8.50
2023-02-04T05:07:37.742Z,8.67
2023-02-04T05:10:06.109Z,8.83
2023-02-04T05:12:33.243Z,8.63
2023-02-04T05:15:00.467Z,7.83
2023-02-04T05:17:28.688Z,8.47
2023-02-04T05:19:55.878Z,8.60
2023-02-04T05:22:23.163Z,8.70
2023-02-04T05:24:50.284Z,7.27
2023-02-04T05:27:17.407Z,8.83
2023-02-04T05:29:44.561Z,7.90
2023-02-04T05:32:11.733Z,8.20
2023-02-04T05:34:39.918Z,9.07
2023-02-04T05:37:07.179Z,8.57
2023-02-04T05:39:34.407Z,9.67
2023-02-04T05:42:01.555Z,9.87
2023-02-04T05:44:29.295Z,9.70
2023-02-04T05:46:56.441Z,9.53
2023-02-04T05:49:24.827Z,9.93
2023-02-04T05:51:51.839Z,9.73
2023-02-04T05:54:20.549Z,10.10
2023-02-04T05:56:48.243Z,11.40
2023-02-04T05:59:15.568Z,10.20
2023-02-04T06:01:42.749Z,8.87
2023-02-04T06:04:10.333Z,9.13
2023-02-04T06:06:37.498Z,10.20
2023-02-04T06:09:04.635Z,9.53
2023-02-04T06:11:31.651Z,9.33
2023-02-04T06:13:58.996Z,8.30
2023-02-04T06:16:26.544Z,9.67
2023-02-04T06:18:53.541Z,8.20
2023-02-04T06:21:21.104Z,9.30
2023-02-04T06:23:48.379Z,10.53
2023-02-04T06:26:15.779Z,10.20
2023-02-04T06:28:43.219Z,9.03
2023-02-04T06:31:12.638Z,9.07
2023-02-04T06:33:39.780Z,9.13
2023-02-04T06:36:07.306Z,9.20
2023-02-04T06:38:34.475Z,9.77
2023-02-04T06:41:01.537Z,10.07
2023-02-04T06:43:28.800Z,9.00
2023-02-04T06:45:55.938Z,10.93
2023-02-04T06:48:23.148Z,9.40
2023-02-04T06:50:50.149Z,9.40
2023-02-04T06:53:17.536Z,10.00
2023-02-04T06:55:44.765Z,10.10
2023-02-04T06:58:12.079Z,10.23
2023-02-04T07:00:39.383Z,11.03
2023-02-04T07:03:07.595Z,9.93
2023-02-04T07:05:34.665Z,9.90
2023-02-04T07:08:02.339Z,11.57
2023-02-04T07:10:30.274Z,10.40
2023-02-04T07:12:57.780Z,11.53
2023-02-04T07:15:25.110Z,10.40
2023-02-04T07:17:52.495Z,11.40
2023-02-04T07:20:19.725Z,10.57
2023-02-04T07:22:46.906Z,10.83
2023-02-04T07:25:16.008Z,10.67
2023-02-04T07:27:43.209Z,10.83
2023-02-04T07:30:11.359Z,10.77
2023-02-04T07:32:38.483Z,11.07
2023-02-04T07:35:06.495Z,9.80
2023-02-04T07:37:33.554Z,9.63
2023-02-04T07:40:00.661Z,10.70
2023-02-04T07:42:28.319Z,10.37
2023-02-04T07:44:55.515Z,10.47
2023-02-04T07:47:22.498Z,11.83
2023-02-04T07:49:49.618Z,12.20
2023-02-04T07:52:16.642Z,11.13
2023-02-04T07:54:43.822Z,11.97
2023-02-04T07:57:10.846Z,12.27
2023-02-04T07:59:37.945Z,12.50
2023-02-04T08:02:05.042Z,13.07
2023-02-04T08:04:32.136Z,13.90
2023-02-04T08:06:59.176Z,13.20
2023-02-04T08:09:27.243Z,13.93
2023-02-04T08:11:54.619Z,13.57
2023-02-04T08:14:21.789Z,13.90
2023-02-04T08:16:48.885Z,14.03
2023-02-04T08:19:20.899Z,13.73
2023-02-04T08:21:48.645Z,13.33
2023-02-04T08:24:16.710Z,13.53
2023-02-04T08:26:45.030Z,13.20
2023-02-04T08:29:12.158Z,13.40
2023-02-04T08:31:39.780Z,13.17
2023-02-04T08:34:07.333Z,13.53
2023-02-04T08:36:34.546Z,13.30
2023-02-04T08:39:01.938Z,12.00
2023-02-04T08:41:29.014Z,12.47
2023-02-04T08:43:56.351Z,12.40
2023-02-04T08:46:23.586Z,12.03
2023-02-04T08:48:50.818Z,12.63
2023-02-04T08:51:17.968Z,12.87
2023-02-04T08:53:45.154Z,13.10
2023-02-04T08:56:16.572Z,11.87
2023-02-04T08:58:45.131Z,12.83
2023-02-04T09:01:12.810Z,12.83
2023-02-04T09:03:40.266Z,13.43
2023-02-04T09:06:08.752Z,13.67
2023-02-04T09:08:36.082Z,14.70
2023-02-04T09:11:04.445Z,13.13
2023-02-04T09:13:32.875Z,14.10
2023-02-04T09:15:59.964Z,14.43
2023-02-04T09:18:27.781Z,14.37
2023-02-04T09:20:54.872Z,15.57
2023-02-04T09:23:23.105Z,15.03
2023-02-04T09:25:50.436Z,16.17
2023-02-04T09:28:18.134Z,16.43
2023-02-04T09:30:47.414Z,16.37
2023-02-04T09:33:17.096Z,15.63
2023-02-04T09:35:44.766Z,16.13
2023-02-04T09:38:11.970Z,17.40
2023-02-04T09:40:53.287Z,16.40
2023-02-04T09:43:27.970Z,18.13
2023-02-04T09:45:56.766Z,16.67
2023-02-04T09:48:25.039Z,17.53
2023-02-04T09:50:53.520Z,17.37
2023-02-04T09:53:24.590Z,17.70
2023-02-04T09:55:52.744Z,18.03
2023-02-04T09:58:22.935Z,18.33
2023-02-04T10:01:01.870Z,16.67
2023-02-04T10:03:28.930Z,17.70
2023-02-04T10:05:56.237Z,16.73
2023-02-04T10:08:33.489Z,18.07
2023-02-04T10:11:01.264Z,15.77
2023-02-04T10:13:41.894Z,15.53
2023-02-04T10:16:29.944Z,14.57
2023-02-04T10:19:04.007Z,17.03
2023-02-04T10:21:34.713Z,15.30
2023-02-04T10:24:07.158Z,14.30
2023-02-04T10:26:34.333Z,14.77
2023-02-04T10:29:04.931Z,15.63
2023-02-04T10:31:45.305Z,15.07
2023-02-04T10:34:40.168Z,15.63
2023-02-04T10:37:21.628Z,14.57
2023-02-04T10:39:50.021Z,13.55
2023-02-04T10:42:27.318Z,13.38
2023-02-04T10:44:55.022Z,12.13
2023-02-04T10:47:25.512Z,11.13
2023-02-04T10:50:07.648Z,10.37
2023-02-04T10:52:41.735Z,10.07
2023-02-04T10:55:15.697Z,10.30
2023-02-04T10:57:48.149Z,11.68
2023-02-04T11:00:24.498Z,11.80
2023-02-04T11:03:22.148Z,11.60
2023-02-04T11:05:49.659Z,11.00
2023-02-04T11:08:25.233Z,11.40
2023-02-04T11:11:20.715Z,10.73
2023-02-04T11:13:50.769Z,9.68
2023-02-04T11:16:17.794Z,10.57
2023-02-04T11:18:53.829Z,10.23
2023-02-04T11:21:34.327Z,10.45
2023-02-04T11:24:16.194Z,9.55
2023-02-04T11:26:44.842Z,10.27
2023-02-04T11:29:36.470Z,9.93
2023-02-04T11:32:38.032Z,10.65
2023-02-04T11:35:24.453Z,9.93
2023-02-04T11:37:51.577Z,9.80
2023-02-04T11:40:25.869Z,10.15
2023-02-04T11:43:14.862Z,9.40
2023-02-04T11:45:43.310Z,7.30
2023-02-04T11:48:19.943Z,7.97
2023-02-04T11:51:02.553Z,7.65
2023-02-04T11:53:34.383Z,8.25
2023-02-04T11:56:01.866Z,8.10
2023-02-04T11:58:31.169Z,7.97
2023-02-04T12:00:59.353Z,7.93
2023-02-04T12:03:34.551Z,8.98
2023-02-04T12:06:02.258Z,9.48
2023-02-04T12:08:37.045Z,9.70
2023-02-04T12:11:05.955Z,8.52
2023-02-04T12:13:33.894Z,7.40
2023-02-04T12:16:03.499Z,7.43
2023-02-04T12:18:32.498Z,7.05
2023-02-04T12:21:01.334Z,6.97
2023-02-04T12:23:29.912Z,8.18
2023-02-04T12:25:57.809Z,8.02
2023-02-04T12:28:25.814Z,7.53
2023-02-04T12:30:52.941Z,8.38
2023-02-04T12:33:20.032Z,7.97
2023-02-04T12:35:47.306Z,9.30
2023-02-04T12:38:14.476Z,8.52
2023-02-04T12:40:41.652Z,8.25
2023-02-04T12:43:08.862Z,8.13
2023-02-04T12:45:35.979Z,7.85
2023-02-04T12:48:03.191Z,7.45
2023-02-04T12:50:31.686Z,7.88
2023-02-04T12:53:00.078Z,8.07
2023-02-04T12:55:28.603Z,7.25
2023-02-04T12:57:56.557Z,6.95
2023-02-04T13:00:24.638Z,6.88
2023-02-04T13:02:51.833Z,7.68
2023-02-04T13:05:19.376Z,6.93
2023-02-04T13:07:46.845Z,7.00
2023-02-04T13:10:14.712Z,6.68
2023-02-04T13:12:42.033Z,7.25
2023-02-04T13:15:10.439Z,7.13
2023-02-04T13:17:37.552Z,7.57
2023-02-04T13:20:06.092Z,6.70
2023-02-04T13:22:33.497Z,7.93
2023-02-04T13:25:01.766Z,8.10
2023-02-04T13:27:31.821Z,7.53
2023-02-04T13:29:59.147Z,7.35
2023-02-04T13:32:26.324Z,8.20
2023-02-04T13:34:53.360Z,8.90
2023-02-04T13:37:20.963Z,8.05
2023-02-04T13:39:48.064Z,8.43
2023-02-04T13:42:15.187Z,7.85
2023-02-04T13:44:42.464Z,8.48
2023-02-04T13:47:09.649Z,8.00
2023-02-04T13:49:36.963Z,8.00
2023-02-04T13:52:04.225Z,7.68
2023-02-04T13:54:31.474Z,8.13
2023-02-04T13:56:58.760Z,8.15
2023-02-04T13:59:25.855Z,7.30
2023-02-04T14:01:53.191Z,7.28
2023-02-04T14:04:20.211Z,7.45
2023-02-04T14:06:47.287Z,7.20
2023-02-04T14:09:14.563Z,7.00
2023-02-04T14:11:41.624Z,7.28
2023-02-04T14:14:08.958Z,7.53
2023-02-04T14:16:37.851Z,7.00
2023-02-04T14:19:06.410Z,8.25
2023-02-04T14:21:33.683Z,7.85
2023-02-04T14:24:01.612Z,8.32
2023-02-04T14:26:28.956Z,7.85
2023-02-04T14:28:56.040Z,7.68
2023-02-04T14:31:23.418Z,6.93
2023-02-04T14:33:50.675Z,7.55
2023-02-04T14:36:17.927Z,7.00
2023-02-04T14:38:45.280Z,6.72
2023-02-04T14:41:16.366Z,6.70
2023-02-04T14:43:43.644Z,7.38
2023-02-04T14:46:10.815Z,7.63
2023-02-04T14:48:38.193Z,7.05
2023-02-04T14:51:05.804Z,7.78
2023-02-04T14:53:33.283Z,8.00
2023-02-04T14:56:00.561Z,8.20
2023-02-04T14:58:28.018Z,7.53
2023-02-04T15:00:55.671Z,8.00
2023-02-04T15:03:23.019Z,7.30
2023-02-04T15:05:50.088Z,7.53
2023-02-04T15:08:17.241Z,8.18
2023-02-04T15:10:44.379Z,7.47
2023-02-04T15:13:11.976Z,6.65
2023-02-04T15:15:39.310Z,7.57
2023-02-04T15:18:06.561Z,6.22
2023-02-04T15:20:34.061Z,8.15
2023-02-04T15:23:01.466Z,7.50
2023-02-04T15:25:28.760Z,8.13
2023-02-04T15:27:55.966Z,6.73
2023-02-04T15:30:23.230Z,7.57
2023-02-04T15:32:50.225Z,7.00
2023-02-04T15:35:17.256Z,7.37
2023-02-04T15:37:44.283Z,7.85
2023-02-04T15:40:12.277Z,7.75
2023-02-04T15:42:39.367Z,8.50
2023-02-04T15:45:07.280Z,8.53
2023-02-04T15:47:34.829Z,10.50
2023-02-04T15:50:04.034Z,9.40
2023-02-04T15:52:31.191Z,10.13
2023-02-04T15:54:58.379Z,10.97
2023-02-04T15:57:25.330Z,11.03
2023-02-04T15:59:52.302Z,10.10
2023-02-04T16:02:19.567Z,11.43
2023-02-04T16:04:47.980Z,11.77
2023-02-04T16:07:15.392Z,11.10
2023-02-04T16:09:44.009Z,11.40
2023-02-04T16:12:11.195Z,11.33
2023-02-04T16:14:38.474Z,11.53
2023-02-04T16:17:08.223Z,10.60
2023-02-04T16:19:35.555Z,11.47
2023-02-04T16:22:02.641Z,12.27
2023-02-04T16:24:29.793Z,12.10
2023-02-04T16:26:56.979Z,12.43
2023-02-04T16:29:24.819Z,12.00
2023-02-04T16:31:53.958Z,13.07
2023-02-04T16:34:21.222Z,11.60
2023-02-04T16:36:48.296Z,13.17
2023-02-04T16:39:16.022Z,12.47
2023-02-04T16:41:43.047Z,11.30
2023-02-04T16:44:10.094Z,11.67
2023-02-04T16:46:37.277Z,12.33
2023-02-04T16:49:05.127Z,13.30
2023-02-04T16:51:32.470Z,12.43
2023-02-04T16:53:59.613Z,12.67
2023-02-04T16:56:34.993Z,13.07
2023-02-04T16:59:02.755Z,12.50
2023-02-04T17:01:30.583Z,13.00
2023-02-04T17:04:00.821Z,12.20
2023-02-04T17:06:30.300Z,13.27
2023-02-04T17:08:57.361Z,12.43
2023-02-04T17:11:33.999Z,12.03
2023-02-04T17:14:09.810Z,14.07
2023-02-04T17:16:37.858Z,13.23
2023-02-04T17:19:05.606Z,11.60
2023-02-04T17:21:32.778Z,13.00
2023-02-04T17:24:04.300Z,12.73
2023-02-04T17:26:37.364Z,13.00
2023-02-04T17:29:14.406Z,12.50
2023-02-04T17:31:43.686Z,14.00
2023-02-04T17:34:11.481Z,12.77
2023-02-04T17:36:39.034Z,13.60
2023-02-04T17:39:07.578Z,13.27
2023-02-04T17:41:34.966Z,14.30
2023-02-04T17:44:03.311Z,12.67
2023-02-04T17:46:31.326Z,12.70
2023-02-04T17:48:59.006Z,14.03
2023-02-04T17:51:26.224Z,13.70
2023-02-04T17:53:53.331Z,13.37
2023-02-04T17:56:21.536Z,14.00
2023-02-04T17:58:49.525Z,13.33
2023-02-04T18:01:19.134Z,13.27
2023-02-04T18:03:46.725Z,13.50
2023-02-04T18:06:28.631Z,13.73
2023-02-04T18:09:01.816Z,13.53
2023-02-04T18:11:37.585Z,13.50
2023-02-04T18:14:27.634Z,14.17
2023-02-04T18:16:58.908Z,13.40
2023-02-04T18:19:31.340Z,14.50
2023-02-04T18:21:59.437Z,13.17
2023-02-04T18:24:39.784Z,14.40
2023-02-04T18:27:24.662Z,13.90
2023-02-04T18:29:55.794Z,14.23
2023-02-04T18:32:38.845Z,13.57
2023-02-04T18:35:40.964Z,15.20
2023-02-04T18:38:26.017Z,14.60
2023-02-04T18:41:09.657Z,13.87
2023-02-04T18:43:38.305Z,14.27
2023-02-04T18:46:46.569Z,15.23
2023-02-04T18:49:26.727Z,14.73
2023-02-04T18:51:54.910Z,14.80
2023-02-04T18:54:29.664Z,15.23
2023-02-04T18:57:29.755Z,17.77
2023-02-04T19:00:10.281Z,19.20
2023-02-04T19:02:47.646Z,15.57
2023-02-04T19:05:41.307Z,15.17
2023-02-04T19:08:37.367Z,16.63
2023-02-04T19:11:33.492Z,16.20
2023-02-04T19:14:01.830Z,15.00
2023-02-04T19:16:38.341Z,16.30
2023-02-04T19:19:37.614Z,15.20
2023-02-04T19:22:20.907Z,15.77
2023-02-04T19:24:51.279Z,15.17
2023-02-04T19:27:34.253Z,15.40
2023-02-04T19:30:27.493Z,15.87
2023-02-04T19:33:01.842Z,15.67
2023-02-04T19:35:39.715Z,14.43
2023-02-04T19:38:43.058Z,13.77
2023-02-04T19:41:41.863Z,13.33
2023-02-04T19:44:15.205Z,13.93
2023-02-04T19:46:44.126Z,14.13
2023-02-04T19:49:29.322Z,13.30
2023-02-04T19:51:59.173Z,15.37
2023-02-04T19:54:39.533Z,14.87
2023-02-04T19:57:26.212Z,13.67
2023-02-04T19:59:56.707Z,14.37
2023-02-04T20:02:36.500Z,14.17
2023-02-04T20:05:19.177Z,15.63
2023-02-04T20:07:46.357Z,14.77
2023-02-04T20:10:27.638Z,15.60
2023-02-04T20:13:02.775Z,15.37
2023-02-04T20:15:30.617Z,15.40
2023-02-04T20:17:58.796Z,15.03
2023-02-04T20:20:30.739Z,16.10
2023-02-04T20:23:01.320Z,17.13
2023-02-04T20:25:48.317Z,17.43
2023-02-04T20:28:42.937Z,17.17
2023-02-04T20:31:24.113Z,15.67
2023-02-04T20:33:59.405Z,15.43
2023-02-04T20:36:26.437Z,15.23
2023-02-04T20:39:16.383Z,14.80
2023-02-04T20:41:43.442Z,14.23
2023-02-04T20:44:28.227Z,16.63
2023-02-04T20:47:23.391Z,15.00
2023-02-04T20:49:57.225Z,14.30
2023-02-04T20:52:46.041Z,16.17
2023-02-04T20:55:34.468Z,15.50
2023-02-04T20:58:23.610Z,14.50
2023-02-04T21:00:54.373Z,14.00
2023-02-04T21:03:41.708Z,12.33
2023-02-04T21:06:27.619Z,11.70
2023-02-04T21:08:57.722Z,13.77
2023-02-04T21:11:25.803Z,15.00
2023-02-04T21:13:54.465Z,14.87
2023-02-04T21:16:22.007Z,14.03
2023-02-04T21:18:50.631Z,14.40
2023-02-04T21:21:20.958Z,14.17
2023-02-04T21:23:47.971Z,14.60
2023-02-04T21:26:15.085Z,14.27
2023-02-04T21:28:42.204Z,14.20
2023-02-04T21:31:11.638Z,14.77
2023-02-04T21:33:39.103Z,14.50
2023-02-04T21:36:07.492Z,14.43
2023-02-04T21:38:34.964Z,14.40
2023-02-04T21:41:02.198Z,15.40
2023-02-04T21:43:29.557Z,14.60
2023-02-04T21:45:56.675Z,15.03
2023-02-04T21:48:24.724Z,14.90
2023-02-04T21:50:51.949Z,15.17
2023-02-04T21:53:19.079Z,14.40
2023-02-04T21:55:46.297Z,16.47
2023-02-04T21:58:13.410Z,15.40
2023-02-04T22:00:40.604Z,16.40
2023-02-04T22:03:12.939Z,16.50
2023-02-04T22:05:40.189Z,16.63
2023-02-04T22:08:08.246Z,16.10
2023-02-04T22:10:35.280Z,15.30
2023-02-04T22:13:21.373Z,16.53
2023-02-04T22:15:48.481Z,16.53
2023-02-04T22:18:15.943Z,16.53
2023-02-04T22:20:43.299Z,16.93
2023-02-04T22:23:10.444Z,18.70
2023-02-04T22:25:37.656Z,17.77
2023-02-04T22:28:05.019Z,18.17
2023-02-04T22:30:32.236Z,20.27
2023-02-04T22:35:33.357Z,20.03
2023-02-04T22:38:02.121Z,20.10
2023-02-04T22:40:29.388Z,22.23
2023-02-04T22:42:59.101Z,21.73
2023-02-04T22:45:26.628Z,21.23
2023-02-04T22:47:53.919Z,21.83
2023-02-04T22:50:21.122Z,21.73
2023-02-04T22:52:48.229Z,21.93
2023-02-04T22:55:15.308Z,22.27
2023-02-04T22:57:42.332Z,20.60
2023-02-04T23:00:11.140Z,19.43
2023-02-04T23:02:38.419Z,19.93
2023-02-04T23:05:06.047Z,19.07
2023-02-04T23:07:33.279Z,18.40
2023-02-04T23:10:00.367Z,19.77
2023-02-04T23:12:27.655Z,19.37
2023-02-04T23:14:54.791Z,19.77
2023-02-04T23:17:22.046Z,21.00
2023-02-04T23:19:49.598Z,20.97
2023-02-04T23:22:17.300Z,19.13
2023-02-04T23:24:44.551Z,19.17
2023-02-04T23:27:12.164Z,19.50
2023-02-04T23:29:40.478Z,18.83
2023-02-04T23:32:08.434Z,20.10
2023-02-04T23:34:35.964Z,20.00
2023-02-04T23:37:03.822Z,21.33
2023-02-04T23:39:31.153Z,21.40
2023-02-04T23:41:58.429Z,21.93
2023-02-04T23:44:25.866Z,21.83
2023-02-04T23:46:53.114Z,22.47
2023-02-04T23:49:20.552Z,21.40
2023-02-04T23:51:47.576Z,21.53
2023-02-04T23:54:14.801Z,22.53
2023-02-04T23:56:41.973Z,23.03
2023-02-04T23:59:09.380Z,23.20
